Time;durP1;ratioP1;P1;durP2;ratioP2;P2;SDS_P1;SDS_P2;PMS_P1;PMS_P2;Temp;Humidity;BMP_temperature;BMP_pressure;BME280_temperature;BME280_humidity;BME280_pressure;Samples;Min_cycle;Max_cycle;Signal;HPM_P1;HPM_P2
2022/04/22 00:00:37;;;;;;;15.82;5.10;;;11.00;99.90;;;;;;5055489;28;20040;-77
2022/04/22 00:03:04;;;;;;;12.75;5.30;;;10.90;99.90;;;;;;5037506;28;20041;-76
2022/04/22 00:05:30;;;;;;;13.27;6.45;;;10.90;99.90;;;;;;5037648;28;20049;-76
2022/04/22 00:07:56;;;;;;;17.48;6.25;;;10.80;99.90;;;;;;5021847;28;20342;-77
2022/04/22 00:10:22;;;;;;;17.95;6.65;;;10.70;99.90;;;;;;5055379;28;20045;-77
2022/04/22 00:12:48;;;;;;;16.50;6.05;;;10.60;99.90;;;;;;5055474;28;20052;-75
2022/04/22 00:15:13;;;;;;;12.70;6.05;;;10.50;99.90;;;;;;5037860;28;20053;-76
2022/04/22 00:17:41;;;;;;;15.40;7.13;;;10.50;99.90;;;;;;5021269;28;20049;-78
2022/04/22 00:20:11;;;;;;;16.48;7.60;;;10.40;99.90;;;;;;5037452;28;20051;-77
2022/04/22 00:22:39;;;;;;;16.50;7.78;;;10.40;99.90;;;;;;5021127;28;20131;-79
2022/04/22 00:25:07;;;;;;;21.52;7.70;;;10.40;99.90;;;;;;5037241;28;20071;-77
2022/04/22 00:27:32;;;;;;;20.27;7.38;;;10.40;99.90;;;;;;5037292;28;20057;-77
2022/04/22 00:29:58;;;;;;;17.02;7.75;;;10.30;99.90;;;;;;5020675;28;20068;-78
2022/04/22 00:32:24;;;;;;;18.77;7.75;;;10.20;99.90;;;;;;5019991;28;20461;-78
2022/04/22 00:34:49;;;;;;;20.75;8.68;;;10.20;99.90;;;;;;5037679;28;20045;-76
2022/04/22 00:37:15;;;;;;;17.55;7.57;;;10.20;99.90;;;;;;5037347;28;20056;-76
2022/04/22 00:39:41;;;;;;;20.42;8.88;;;10.20;99.90;;;;;;5003598;28;20076;-77
2022/04/22 00:42:10;;;;;;;16.13;7.38;;;10.10;99.90;;;;;;5054078;28;20048;-76
2022/04/22 00:44:37;;;;;;;20.48;8.48;;;10.10;99.90;;;;;;5021178;28;20056;-76
2022/04/22 00:47:03;;;;;;;20.27;8.30;;;10.10;99.90;;;;;;5036866;28;20052;-77
2022/04/22 00:49:29;;;;;;;19.33;7.70;;;10.10;99.90;;;;;;5019666;28;20128;-75
2022/04/22 00:52:03;;;;;;;21.88;8.18;;;10.10;99.90;;;;;;5036544;28;20403;-76
2022/04/22 00:54:30;;;;;;;22.17;8.48;;;10.20;99.90;;;;;;5054845;28;20056;-76
2022/04/22 00:56:56;;;;;;;;;;;10.10;99.90;;;;;;5054831;28;20057;-77
2022/04/22 00:59:23;;;;;;;18.17;8.50;;;10.20;99.90;;;;;;5053846;28;19921;-75
2022/04/22 01:01:49;;;;;;;22.25;8.65;;;10.10;99.90;;;;;;5036418;28;20124;-76
2022/04/22 01:09:51;;;;;;;19.10;8.73;;;9.90;99.90;;;;;;5023017;28;20346;-76
2022/04/22 01:12:18;;;;;;;27.65;9.05;;;9.80;99.90;;;;;;5036601;28;20369;-76
2022/04/22 01:14:45;;;;;;;22.58;9.05;;;9.90;99.90;;;;;;5054370;28;20044;-76
2022/04/22 01:17:11;;;;;;;;;;;9.80;99.90;;;;;;5036413;28;20060;-77
2022/04/22 01:19:38;;;;;;;21.00;8.83;;;9.80;99.90;;;;;;5036042;28;19920;-76
2022/04/22 01:22:05;;;;;;;22.20;8.87;;;9.70;99.90;;;;;;5054094;28;20045;-76
2022/04/22 01:24:31;;;;;;;21.95;9.50;;;9.70;99.90;;;;;;5036025;28;20053;-76
2022/04/22 01:27:00;;;;;;;21.10;9.63;;;9.70;99.90;;;;;;5053731;28;20064;-77
2022/04/22 01:29:26;;;;;;;31.67;11.77;;;9.70;99.90;;;;;;5054223;28;20355;-76
2022/04/22 01:31:52;;;;;;;26.23;9.55;;;9.60;99.90;;;;;;5036799;28;20140;-77
2022/04/22 01:34:18;;;;;;;21.95;10.07;;;9.50;99.90;;;;;;5035780;28;20037;-76
2022/04/22 01:36:44;;;;;;;26.48;11.32;;;9.60;99.90;;;;;;5019513;28;20131;-77
2022/04/22 01:39:09;;;;;;;27.60;11.13;;;9.60;99.90;;;;;;5054618;28;20164;-80
2022/04/22 01:41:35;;;;;;;29.58;13.35;;;9.60;99.90;;;;;;5036228;28;20037;-77
2022/04/22 01:44:01;;;;;;;28.85;12.65;;;9.50;99.90;;;;;;5036178;28;20086;-76
2022/04/22 01:46:27;;;;;;;31.55;11.95;;;9.50;99.90;;;;;;5019047;28;20044;-77
2022/04/22 01:48:53;;;;;;;30.55;11.07;;;9.50;99.90;;;;;;5053364;28;20050;-76
2022/04/22 01:51:18;;;;;;;26.65;11.93;;;9.50;99.90;;;;;;5035253;28;20055;-77
2022/04/22 01:53:44;;;;;;;25.05;11.30;;;9.40;99.90;;;;;;5035588;28;20082;-76
2022/04/22 01:56:10;;;;;;;28.50;12.30;;;9.30;99.90;;;;;;5002734;28;20538;-76
2022/04/22 01:58:36;;;;;;;30.52;12.10;;;9.30;99.90;;;;;;5035714;28;20123;-77
2022/04/22 02:01:02;;;;;;;27.55;11.85;;;9.30;99.90;;;;;;5019653;28;20140;-76
2022/04/22 02:03:29;;;;;;;30.15;11.50;;;9.20;99.90;;;;;;5035902;28;20113;-76
2022/04/22 02:05:54;;;;;;;34.78;13.50;;;9.20;99.90;;;;;;5035697;28;20125;-76
2022/04/22 02:08:21;;;;;;;34.90;13.60;;;9.20;99.90;;;;;;5018939;28;20128;-77
2022/04/22 02:10:46;;;;;;;32.97;13.13;;;9.10;99.90;;;;;;5035004;28;20044;-76
2022/04/22 02:13:12;;;;;;;34.80;13.32;;;9.10;99.90;;;;;;5002882;28;20063;-76
2022/04/22 02:15:38;;;;;;;35.58;13.27;;;9.10;99.90;;;;;;5002721;28;20175;-76
2022/04/22 02:18:04;;;;;;;34.17;14.32;;;9.00;99.90;;;;;;5034997;28;20334;-76
2022/04/22 02:20:30;;;;;;;37.63;15.55;;;9.10;99.90;;;;;;5019309;28;20047;-77
2022/04/22 02:22:56;;;;;;;39.15;15.45;;;9.00;99.90;;;;;;5052875;28;20469;-77
2022/04/22 02:25:22;;;;;;;36.53;15.17;;;9.00;99.90;;;;;;5035661;28;20100;-77
2022/04/22 02:30:32;;;;;;;37.42;14.77;;;8.90;99.90;;;;;;5035440;28;20472;-77
2022/04/22 02:32:58;;;;;;;35.10;14.20;;;8.90;99.90;;;;;;5035236;28;20061;-77
2022/04/22 02:35:23;;;;;;;41.30;16.45;;;8.90;99.90;;;;;;5035490;28;20399;-77
2022/04/22 02:37:49;;;;;;;38.90;15.25;;;8.80;99.90;;;;;;5034510;28;20092;-76
2022/04/22 02:45:26;;;;;;;35.83;15.02;;;8.80;99.90;;;;;;5034803;28;20110;-77
2022/04/22 02:45:47;;;;;;;36.83;14.40;;;8.70;99.90;;;;;;5035433;28;20120;-76
2022/04/22 02:48:12;;;;;;;40.72;15.80;;;8.60;99.90;;;;;;5018209;28;20052;-76
2022/04/22 02:50:38;;;;;;;34.35;14.57;;;8.60;99.90;;;;;;5035078;28;20099;-77
2022/04/22 02:53:04;;;;;;;38.47;16.92;;;8.60;99.90;;;;;;5002010;28;20049;-77
2022/04/22 02:55:30;;;;;;;36.50;14.02;;;8.50;99.90;;;;;;5034935;28;20128;-77
2022/04/22 02:57:56;;;;;;;37.85;14.43;;;8.50;99.90;;;;;;5035157;28;20110;-77
2022/04/22 03:00:23;;;;;;;36.05;13.57;;;8.40;99.90;;;;;;5052574;28;20037;-76
2022/04/22 03:02:49;;;;;;;39.60;13.80;;;8.40;99.90;;;;;;5034839;28;20052;-76
2022/04/22 03:05:15;;;;;;;34.42;15.50;;;8.40;99.90;;;;;;5038003;28;20465;-75
2022/04/22 03:07:40;;;;;;;33.63;14.52;;;8.30;99.90;;;;;;5056286;28;20060;-75
2022/04/22 03:10:07;;;;;;;37.03;14.90;;;8.20;99.90;;;;;;5038736;28;20045;-77
2022/04/22 03:12:34;;;;;;;36.08;14.05;;;8.30;99.90;;;;;;5038570;28;20380;-76
2022/04/22 03:15:01;;;;;;;30.42;12.90;;;8.20;99.90;;;;;;5038550;28;20051;-76
2022/04/22 03:17:27;;;;;;;42.67;14.27;;;8.20;99.90;;;;;;5056219;28;20045;-75
2022/04/22 03:19:53;;;;;;;38.78;14.77;;;8.10;99.90;;;;;;5022193;28;20059;-76
2022/04/22 03:22:19;;;;;;;33.17;13.00;;;8.00;99.90;;;;;;5039113;28;20168;-76
2022/04/22 03:24:44;;;;;;;34.72;12.15;;;8.00;99.90;;;;;;5056075;28;20483;-76
2022/04/22 03:27:10;;;;;;;32.13;12.75;;;8.00;99.90;;;;;;5022189;28;20098;-76
2022/04/22 03:29:36;;;;;;;34.90;14.57;;;7.90;99.90;;;;;;5021859;28;20044;-76
2022/04/22 03:32:03;;;;;;;36.60;13.57;;;7.90;99.90;;;;;;5038462;28;20045;-76
2022/04/22 03:34:28;;;;;;;38.80;13.40;;;7.90;99.90;;;;;;5055883;28;20045;-77
2022/04/22 03:36:55;;;;;;;33.78;12.55;;;7.80;99.90;;;;;;5037701;28;20206;-75
2022/04/22 03:39:21;;;;;;;36.45;13.25;;;7.80;99.90;;;;;;5055483;28;20048;-76
2022/04/22 03:41:46;;;;;;;32.72;13.82;;;7.90;99.90;;;;;;5037808;28;20123;-76
2022/04/22 03:44:12;;;;;;;35.40;13.82;;;7.90;99.90;;;;;;5037932;28;20175;-76
2022/04/22 03:46:38;;;;;;;36.58;13.15;;;7.80;99.90;;;;;;5021496;28;20075;-76
2022/04/22 03:49:04;;;;;;;30.13;12.07;;;7.80;99.90;;;;;;5004946;28;20086;-76
2022/04/22 03:51:31;;;;;;;32.38;12.90;;;7.80;99.90;;;;;;5021973;28;20053;-76
2022/04/22 03:53:57;;;;;;;30.85;12.35;;;7.80;99.90;;;;;;5022115;28;20084;-77
2022/04/22 03:59:07;;;;;;;29.02;12.52;;;7.90;99.90;;;;;;5038252;28;20103;-77
2022/04/22 04:01:33;;;;;;;34.40;12.95;;;7.80;99.90;;;;;;5004677;28;20045;-77
2022/04/22 04:03:59;;;;;;;31.20;11.35;;;7.70;99.90;;;;;;5020852;28;20419;-76
2022/04/22 04:06:26;;;;;;;31.95;11.60;;;7.70;99.90;;;;;;5021502;28;20072;-77
2022/04/22 04:17:06;;;;;;;24.05;10.40;;;7.70;99.90;;;;;;5037865;28;20060;-75
2022/04/22 04:25:00;;;;;;;29.40;11.85;;;7.60;99.90;;;;;;5037189;28;20115;-75
2022/04/22 04:27:26;;;;;;;22.90;9.63;;;7.60;99.90;;;;;;5004700;28;20128;-76
2022/04/22 04:29:51;;;;;;;24.15;10.70;;;7.50;99.90;;;;;;5036930;28;20044;-76
2022/04/22 04:32:17;;;;;;;20.45;8.93;;;7.60;99.90;;;;;;5036443;28;20056;-75
2022/04/22 04:34:44;;;;;;;26.45;9.25;;;7.60;99.90;;;;;;5036696;28;20037;-77
2022/04/22 04:37:12;;;;;;;24.92;9.02;;;7.50;99.90;;;;;;5036218;28;20266;-75
2022/04/22 04:39:39;;;;;;;22.05;8.68;;;7.60;99.90;;;;;;5054607;28;20041;-77
2022/04/22 04:42:05;;;;;;;24.20;9.30;;;7.50;99.90;;;;;;5054328;28;20433;-76
2022/04/22 04:44:32;;;;;;;25.58;8.55;;;7.60;99.90;;;;;;5020486;28;20051;-77
2022/04/22 04:46:58;;;;;;;21.27;8.23;;;7.60;99.90;;;;;;5037042;28;20084;-77
2022/04/22 04:49:27;;;;;;;23.65;8.60;;;7.60;99.90;;;;;;5036546;28;20500;-77
2022/04/22 04:51:53;;;;;;;22.77;8.25;;;7.70;99.90;;;;;;5054876;28;20115;-77
2022/04/22 04:54:19;;;;;;;21.25;8.15;;;7.70;99.90;;;;;;5020283;28;20048;-77
2022/04/22 04:56:45;;;;;;;19.33;8.20;;;7.80;99.90;;;;;;5036710;28;20498;-76
2022/04/22 04:59:11;;;;;;;18.17;7.90;;;7.90;99.90;;;;;;5020647;28;20369;-76
2022/04/22 05:01:37;;;;;;;18.40;7.97;;;8.00;99.90;;;;;;5037098;28;20080;-77
2022/04/22 05:04:03;;;;;;;21.80;8.60;;;8.10;99.90;;;;;;5054246;28;20051;-76
2022/04/22 05:06:30;;;;;;;20.00;7.78;;;8.10;99.90;;;;;;5036738;28;20049;-76
2022/04/22 05:08:56;;;;;;;20.55;8.20;;;8.10;99.90;;;;;;5036446;28;20037;-76
2022/04/22 05:11:22;;;;;;;21.75;8.38;;;8.10;99.90;;;;;;5020116;28;20052;-76
2022/04/22 05:13:48;;;;;;;19.75;7.10;;;8.10;99.90;;;;;;5054541;28;20375;-78
2022/04/22 05:16:14;;;;;;;18.48;8.13;;;8.10;99.90;;;;;;5036185;28;20176;-77
2022/04/22 05:18:40;;;;;;;19.55;7.20;;;8.20;99.90;;;;;;5020250;28;20075;-76
2022/04/22 05:21:06;;;;;;;19.20;7.00;;;8.20;99.90;;;;;;5003817;28;20072;-76
2022/04/22 05:23:32;;;;;;;17.70;7.40;;;8.30;99.90;;;;;;5053872;28;20052;-76
2022/04/22 05:26:01;;;;;;;13.88;6.57;;;8.30;99.90;;;;;;5019050;28;20033;-76
2022/04/22 05:28:28;;;;;;;19.20;7.43;;;8.30;99.90;;;;;;5020967;28;20037;-76
2022/04/22 05:33:54;;;;;;;18.25;6.80;;;8.30;99.90;;;;;;4945112;28;20407;-76
2022/04/22 05:36:21;;;;;;;17.38;6.55;;;8.40;99.90;;;;;;5036866;28;20128;-75
2022/04/22 05:38:46;;;;;;;21.15;6.40;;;8.50;99.90;;;;;;5035465;28;20389;-76
2022/04/22 05:41:12;;;;;;;18.33;6.20;;;8.60;99.90;;;;;;5002743;28;20064;-76
2022/04/22 05:43:38;;;;;;;17.23;6.30;;;8.60;99.90;;;;;;5035727;28;20072;-76
2022/04/22 05:46:04;;;;;;;14.90;6.85;;;8.70;99.90;;;;;;5053205;28;20112;-77
2022/04/22 05:48:29;;;;;;;17.42;6.72;;;8.60;99.90;;;;;;5035661;28;20052;-76
2022/04/22 05:50:55;;;;;;;13.73;5.50;;;8.70;99.90;;;;;;5003284;28;20123;-77
2022/04/22 05:53:21;;;;;;;15.50;5.85;;;8.70;99.90;;;;;;5019644;28;20317;-78
2022/04/22 05:55:47;;;;;;;14.55;5.35;;;8.70;99.90;;;;;;5053653;28;20045;-77
2022/04/22 05:58:12;;;;;;;14.98;6.03;;;8.60;99.90;;;;;;5035427;28;20049;-75
2022/04/22 06:00:38;;;;;;;15.32;6.07;;;8.50;99.90;;;;;;5035705;28;20044;-77
2022/04/22 06:03:04;;;;;;;16.67;5.15;;;8.50;99.90;;;;;;5034927;28;20048;-76
2022/04/22 06:05:31;;;;;;;12.38;5.28;;;8.50;99.90;;;;;;5035378;28;20170;-76
2022/04/22 06:10:42;;;;;;;15.57;5.43;;;8.60;99.90;;;;;;5035915;28;19923;-75
2022/04/22 06:13:08;;;;;;;15.25;4.40;;;8.80;99.90;;;;;;5052788;28;20131;-76
2022/04/22 06:15:34;;;;;;;18.60;5.55;;;8.90;99.90;;;;;;5053070;28;20121;-77
2022/04/22 06:18:01;;;;;;;13.38;5.20;;;8.90;99.90;;;;;;5052701;28;20045;-76
2022/04/22 06:20:27;;;;;;;11.80;4.00;;;9.10;99.90;;;;;;5035097;28;20044;-77
2022/04/22 06:22:54;;;;;;;14.55;5.13;;;9.10;99.90;;;;;;5052805;28;20051;-76
2022/04/22 06:25:20;;;;;;;;;;;9.10;99.90;;;;;;5035531;28;20053;-75
2022/04/22 06:27:47;;;;;;;12.55;5.30;;;9.10;99.90;;;;;;5035159;28;20015;-77
2022/04/22 06:30:17;;;;;;;11.63;5.15;;;9.20;99.90;;;;;;5034757;28;20051;-76
2022/04/22 06:32:46;;;;;;;12.50;4.85;;;9.30;99.90;;;;;;5018412;28;20048;-77
2022/04/22 06:35:13;;;;;;;9.75;4.72;;;9.40;99.90;;;;;;5053584;28;20120;-78
2022/04/22 06:37:57;;;;;;;14.45;4.60;;;9.40;99.90;;;;;;5019114;28;20068;-76
2022/04/22 06:45:53;;;;;;;10.85;4.63;;;9.20;99.90;;;;;;5034513;28;20102;-76
2022/04/22 06:48:35;;;;;;;11.27;5.18;;;9.20;99.90;;;;;;5052550;28;20118;-76
2022/04/22 06:51:02;;;;;;;12.32;5.10;;;9.20;99.90;;;;;;5035295;28;20439;-77
2022/04/22 06:53:28;;;;;;;15.18;5.07;;;9.40;99.90;;;;;;5052659;28;20092;-77
2022/04/22 06:55:59;;;;;;;15.68;5.18;;;9.50;99.90;;;;;;5036099;28;20045;-77
2022/04/22 06:58:26;;;;;;;14.05;5.25;;;9.60;99.90;;;;;;5052642;28;20037;-76
2022/04/22 07:00:52;;;;;;;14.35;5.30;;;9.70;99.90;;;;;;5002845;28;20045;-76
2022/04/22 07:03:18;;;;;;;13.27;6.80;;;9.70;99.90;;;;;;5034470;28;20080;-75
2022/04/22 07:05:47;;;;;;;11.60;4.80;;;9.80;99.90;;;;;;5018009;28;20326;-76
2022/04/22 07:08:14;;;;;;;12.82;4.90;;;9.80;99.90;;;;;;5034581;28;20102;-76
2022/04/22 07:10:48;;;;;;;12.10;5.25;;;9.90;99.90;;;;;;5035191;28;20037;-77
2022/04/22 07:13:16;;;;;;;14.13;5.03;;;10.00;99.90;;;;;;5034843;28;20032;-76
2022/04/22 07:15:44;;;;;;;15.25;6.00;;;10.00;99.90;;;;;;5035338;28;20049;-75
2022/04/22 07:18:11;;;;;;;15.82;4.72;;;10.00;99.90;;;;;;5034302;28;20522;-76
2022/04/22 07:20:37;;;;;;;11.30;5.32;;;10.10;99.90;;;;;;5018149;28;20037;-76
2022/04/22 07:23:03;;;;;;;14.93;5.20;;;10.20;99.90;;;;;;5034874;28;20083;-78
2022/04/22 07:25:29;;;;;;;12.43;5.10;;;10.30;99.90;;;;;;5052288;28;20041;-76
2022/04/22 07:27:56;;;;;;;14.02;5.75;;;10.40;99.90;;;;;;5052156;28;20052;-76
2022/04/22 07:30:23;;;;;;;11.90;5.10;;;10.40;99.90;;;;;;5034091;28;20041;-76
2022/04/22 07:32:49;;;;;;;18.58;4.60;;;10.40;99.90;;;;;;5034501;28;20045;-76
2022/04/22 07:35:17;;;;;;;9.80;4.72;;;10.50;99.90;;;;;;5034677;28;20469;-78
2022/04/22 07:37:45;;;;;;;19.08;4.85;;;10.60;99.90;;;;;;5017887;28;20139;-77
2022/04/22 07:40:12;;;;;;;12.40;5.55;;;10.70;99.90;;;;;;5052127;28;20061;-77
2022/04/22 07:46:46;;;;;;;13.40;5.03;;;10.80;99.90;;;;;;5034760;28;20051;-79
2022/04/22 07:48:19;;;;;;;8.77;4.32;;;10.90;99.90;;;;;;5034085;28;20075;-77
2022/04/22 07:50:47;;;;;;;11.32;4.20;;;10.90;99.90;;;;;;5054780;28;20055;-76
2022/04/22 07:53:14;;;;;;;12.45;4.50;;;11.00;99.90;;;;;;5022146;28;20040;-76
2022/04/22 07:55:41;;;;;;;11.98;4.25;;;11.10;99.90;;;;;;5022396;28;20052;-77
2022/04/22 07:58:07;;;;;;;9.95;4.10;;;11.30;99.90;;;;;;5021387;28;20071;-79
2022/04/22 08:00:32;;;;;;;11.52;5.20;;;11.30;99.90;;;;;;5021727;28;20135;-77
2022/04/22 08:02:58;;;;;;;9.05;4.15;;;11.40;99.90;;;;;;4988519;28;20099;-77
2022/04/22 08:05:24;;;;;;;13.57;5.47;;;11.40;99.90;;;;;;5037681;28;20492;-75
2022/04/22 08:07:50;;;;;;;9.00;4.65;;;11.50;99.90;;;;;;5037490;28;20128;-78
2022/04/22 08:10:15;;;;;;;12.25;5.28;;;11.60;99.90;;;;;;5037537;28;20037;-76
2022/04/22 08:12:42;;;;;;;11.05;4.07;;;11.50;99.90;;;;;;5020546;28;20037;-78
2022/04/22 08:15:08;;;;;;;9.23;3.85;;;11.70;99.90;;;;;;5020968;28;20115;-76
2022/04/22 08:17:37;;;;;;;8.88;4.05;;;11.80;99.90;;;;;;5037324;28;20187;-78
2022/04/22 08:20:07;;;;;;;11.75;4.38;;;11.80;99.90;;;;;;5021527;28;20047;-79
2022/04/22 08:22:33;;;;;;;12.07;4.13;;;11.80;99.90;;;;;;5037304;28;20037;-78
2022/04/22 08:25:00;;;;;;;13.73;4.15;;;11.90;99.90;;;;;;5037476;28;20048;-77
2022/04/22 08:27:26;;;;;;;10.07;3.65;;;12.00;99.90;;;;;;5021000;28;20055;-78
2022/04/22 08:29:53;;;;;;;13.55;3.95;;;12.00;99.90;;;;;;5036934;28;20048;-76
2022/04/22 08:32:19;;;;;;;9.15;3.97;;;12.10;99.90;;;;;;5037043;28;20098;-76
2022/04/22 08:34:46;;;;;;;10.82;3.95;;;12.10;99.90;;;;;;5055059;28;20037;-76
2022/04/22 08:37:11;;;;;;;;;;;12.10;99.90;;;;;;5021584;28;20361;-75
2022/04/22 08:39:38;;;;;;;9.73;3.43;;;12.20;99.90;;;;;;5055052;28;19923;-76
2022/04/22 08:42:04;;;;;;;7.72;2.95;;;12.20;99.90;;;;;;5036881;28;20052;-78
2022/04/22 08:44:31;;;;;;;8.02;2.97;;;12.30;99.90;;;;;;5055657;28;20589;-76
2022/04/22 08:52:29;;;;;;;12.50;3.40;;;12.50;99.90;;;;;;5023480;28;20129;-78
2022/04/22 08:54:55;;;;;;;7.28;2.72;;;12.70;99.90;;;;;;5054899;28;20044;-77
2022/04/22 08:57:22;;;;;;;9.52;2.45;;;12.80;99.90;;;;;;5037287;28;20048;-78
2022/04/22 08:59:49;;;;;;;10.43;2.90;;;12.90;99.90;;;;;;5055239;28;20045;-78
2022/04/22 09:02:18;;;;;;;8.30;2.72;;;13.00;99.90;;;;;;5053313;28;20115;-78
2022/04/22 09:04:47;;;;;;;8.68;2.70;;;13.00;99.90;;;;;;5036984;28;20040;-78
2022/04/22 09:07:14;;;;;;;9.40;2.53;;;13.10;99.90;;;;;;5020463;28;20357;-79
2022/04/22 09:09:40;;;;;;;7.15;2.58;;;13.20;99.50;;;;;;5037393;28;20037;-79
2022/04/22 09:12:08;;;;;;;5.97;2.60;;;13.30;99.20;;;;;;5021099;28;20130;-79
2022/04/22 09:14:34;;;;;;;6.78;2.50;;;13.30;97.60;;;;;;5037007;28;20044;-76
2022/04/22 09:17:01;;;;;;;7.13;2.80;;;13.40;97.20;;;;;;5036618;28;20045;-79
2022/04/22 09:19:34;;;;;;;5.78;2.67;;;13.50;97.20;;;;;;5037419;28;20044;-77
2022/04/22 09:22:01;;;;;;;6.70;2.08;;;13.60;96.80;;;;;;5003638;28;20361;-76
2022/04/22 09:24:27;;;;;;;6.95;2.80;;;13.70;96.60;;;;;;5036489;28;20045;-77
2022/04/22 09:27:11;;;;;;;5.20;2.20;;;13.80;95.60;;;;;;5054915;28;20060;-77
2022/04/22 09:29:52;;;;;;;5.70;1.90;;;13.80;94.90;;;;;;5036483;28;20063;-78
2022/04/22 09:32:22;;;;;;;6.60;2.28;;;13.90;94.50;;;;;;5036005;28;20092;-76
2022/04/22 09:34:48;;;;;;;7.13;2.28;;;13.90;94.10;;;;;;5003843;28;20054;-76
2022/04/22 09:43:01;;;;;;;5.63;1.70;;;14.20;93.60;;;;;;5035915;28;20049;-77
2022/04/22 09:45:39;;;;;;;6.15;2.35;;;14.30;91.90;;;;;;5019432;28;20049;-81
2022/04/22 09:48:16;;;;;;;6.40;2.08;;;14.20;91.50;;;;;;5035698;28;20036;-78
2022/04/22 09:50:52;;;;;;;7.53;2.35;;;14.30;90.70;;;;;;5053654;28;20043;-76
2022/04/22 09:53:33;;;;;;;10.43;2.42;;;14.30;91.70;;;;;;5054166;28;20044;-80
2022/04/22 09:56:08;;;;;;;6.38;2.00;;;14.40;92.00;;;;;;5036884;28;20037;-78
2022/04/22 09:58:35;;;;;;;8.65;2.17;;;14.40;90.80;;;;;;5036034;28;20470;-76
2022/04/22 10:01:07;;;;;;;6.00;2.13;;;14.60;90.40;;;;;;5019330;28;20064;-79
2022/04/22 10:03:37;;;;;;;6.57;2.30;;;14.70;89.00;;;;;;5053467;28;20170;-79
2022/04/22 10:06:05;;;;;;;11.23;2.97;;;14.70;88.40;;;;;;5019682;28;20091;-78
2022/04/22 10:08:36;;;;;;;6.97;1.83;;;14.70;88.10;;;;;;5035267;28;20056;-79
2022/04/22 10:11:04;;;;;;;8.18;2.78;;;14.80;87.70;;;;;;5035678;28;20041;-78
2022/04/22 10:13:46;;;;;;;9.80;2.78;;;14.80;87.10;;;;;;5053254;28;20048;-78
2022/04/22 10:16:13;;;;;;;6.53;2.20;;;14.80;86.80;;;;;;5035481;28;20052;-77
2022/04/22 10:18:40;;;;;;;7.28;2.38;;;14.90;85.70;;;;;;5053177;28;20037;-77
2022/04/22 10:21:06;;;;;;;7.25;2.30;;;14.90;85.40;;;;;;5035618;28;20070;-78
2022/04/22 10:23:32;;;;;;;9.70;2.47;;;15.00;85.80;;;;;;5035744;28;20128;-77
2022/04/22 10:26:21;;;;;;;7.53;2.33;;;15.00;84.20;;;;;;5054035;28;20032;-79
2022/04/22 10:28:47;;;;;;;7.75;2.58;;;15.10;83.80;;;;;;5018825;28;20037;-77
2022/04/22 10:31:14;;;;;;;7.97;1.93;;;15.00;83.60;;;;;;5035399;28;20045;-79
2022/04/22 10:33:45;;;;;;;8.48;2.92;;;15.10;83.10;;;;;;5035398;28;20311;-81
2022/04/22 10:36:13;;;;;;;6.40;3.00;;;14.90;81.50;;;;;;5035118;28;20064;-79
2022/04/22 10:38:43;;;;;;;7.00;2.50;;;15.00;82.60;;;;;;5031446;28;20053;-76
2022/04/22 10:41:18;;;;;;;7.88;2.42;;;15.10;82.30;;;;;;4999765;28;20492;-77
2022/04/22 10:49:40;;;;;;;6.75;2.30;;;15.40;80.10;;;;;;5032472;28;20065;-79
2022/04/22 10:52:10;;;;;;;5.68;2.33;;;15.50;81.50;;;;;;5032796;28;20430;-77
2022/04/22 10:54:54;;;;;;;8.75;3.17;;;15.60;80.50;;;;;;5016079;28;20099;-80
2022/04/22 10:57:24;;;;;;;7.80;2.55;;;15.50;78.50;;;;;;5032327;28;20424;-79
2022/04/22 11:00:09;;;;;;;6.57;2.83;;;15.70;81.90;;;;;;5015411;28;20037;-81
2022/04/22 11:02:36;;;;;;;8.93;2.92;;;15.90;82.40;;;;;;5031684;28;20045;-77
2022/04/22 11:05:20;;;;;;;11.02;2.90;;;16.00;82.40;;;;;;5015965;28;20136;-78
2022/04/22 11:07:57;;;;;;;8.45;3.35;;;16.10;78.30;;;;;;5033097;28;20176;-78
2022/04/22 11:10:32;;;;;;;9.07;2.70;;;16.00;78.50;;;;;;5017050;28;20041;-79
2022/04/22 11:13:02;;;;;;;7.53;2.97;;;15.90;78.90;;;;;;5017462;28;20041;-77
2022/04/22 11:15:43;;;;;;;7.05;2.97;;;16.00;79.40;;;;;;5016076;28;20087;-77
2022/04/22 11:18:16;;;;;;;11.27;2.80;;;16.00;79.50;;;;;;5015493;28;20042;-79
2022/04/22 11:20:45;;;;;;;9.13;3.17;;;16.10;79.00;;;;;;5031258;28;20501;-77
2022/04/22 11:23:15;;;;;;;6.95;3.10;;;16.10;79.90;;;;;;4999312;28;20406;-78
2022/04/22 11:25:42;;;;;;;6.25;2.80;;;16.20;76.30;;;;;;5035265;28;20045;-78
2022/04/22 11:28:09;;;;;;;10.30;3.28;;;16.20;79.20;;;;;;5003419;28;20064;-79
2022/04/22 11:30:39;;;;;;;9.60;3.00;;;16.40;79.10;;;;;;5035171;28;20041;-80
2022/04/22 11:33:23;;;;;;;9.73;3.53;;;16.30;78.40;;;;;;5019445;28;20104;-78
2022/04/22 11:35:56;;;;;;;8.88;3.60;;;16.40;78.40;;;;;;5035531;28;20081;-78
2022/04/22 11:38:22;;;;;;;11.25;3.78;;;16.50;78.20;;;;;;5035483;28;20551;-78
2022/04/22 11:40:52;;;;;;;10.15;3.55;;;16.50;76.20;;;;;;5037495;28;20103;-78
2022/04/22 11:43:18;;;;;;;10.07;3.95;;;16.50;77.70;;;;;;5018742;28;20081;-79
2022/04/22 11:45:45;;;;;;;10.73;4.17;;;16.60;77.70;;;;;;5037232;28;20048;-77
2022/04/22 11:48:18;;;;;;;9.88;3.75;;;16.60;75.40;;;;;;5036079;28;20462;-77
2022/04/22 11:50:46;;;;;;;12.40;4.03;;;16.50;77.50;;;;;;5031455;28;20041;-78
2022/04/22 11:53:20;;;;;;;8.63;3.80;;;16.70;77.10;;;;;;5036006;28;20046;-78
2022/04/22 11:55:47;;;;;;;8.93;4.10;;;16.60;73.50;;;;;;5035348;28;20068;-78
2022/04/22 11:58:21;;;;;;;9.40;3.95;;;16.70;76.40;;;;;;5036749;28;20056;-79
2022/04/22 12:06:19;;;;;;;10.80;4.28;;;16.70;75.40;;;;;;5035724;28;20083;-79
2022/04/22 12:08:51;;;;;;;;;;;16.80;76.40;;;;;;5034853;28;20124;-77
2022/04/22 12:11:22;;;;;;;7.90;4.10;;;16.80;75.60;;;;;;5036187;28;19928;-79
2022/04/22 12:13:55;;;;;;;11.88;4.15;;;16.80;75.80;;;;;;5034905;28;20045;-81
2022/04/22 12:16:27;;;;;;;10.23;4.63;;;16.80;76.40;;;;;;5001622;28;20057;-76
2022/04/22 12:18:55;;;;;;;9.50;4.65;;;16.70;75.40;;;;;;5034238;28;20050;-80
2022/04/22 12:21:22;;;;;;;11.38;4.38;;;16.80;76.30;;;;;;5034296;28;20053;-79
2022/04/22 12:23:51;;;;;;;11.40;4.80;;;16.90;76.80;;;;;;5001554;28;20046;-78
2022/04/22 12:26:27;;;;;;;9.48;4.25;;;17.10;77.10;;;;;;5034286;28;20049;-81
2022/04/22 12:29:13;;;;;;;11.40;4.65;;;17.20;75.10;;;;;;5017365;28;20053;-78
2022/04/22 12:31:40;;;;;;;13.13;4.63;;;17.30;75.40;;;;;;5034952;28;20053;-78
2022/04/22 12:34:09;;;;;;;8.73;4.15;;;17.50;74.50;;;;;;5034474;28;20085;-79
2022/04/22 12:36:37;;;;;;;10.95;4.28;;;17.50;72.90;;;;;;5034186;28;20428;-78
2022/04/22 12:39:06;;;;;;;10.02;5.03;;;17.70;73.70;;;;;;5050714;28;20068;-78
2022/04/22 12:41:43;;;;;;;9.63;4.50;;;17.80;70.90;;;;;;5020369;28;20041;-82
2022/04/22 12:44:13;;;;;;;11.38;4.95;;;17.90;71.80;;;;;;5053847;28;20048;-80
2022/04/22 12:52:23;;;;;;;14.60;5.78;;;17.80;72.00;;;;;;5023877;28;20382;-76
2022/04/22 12:54:50;;;;;;;14.20;5.60;;;17.80;72.30;;;;;;5054771;28;20530;-76
2022/04/22 12:57:22;;;;;;;13.55;5.72;;;17.80;72.50;;;;;;5036982;28;20049;-77
2022/04/22 12:59:55;;;;;;;15.30;6.63;;;17.80;71.50;;;;;;5054676;28;20049;-78
2022/04/22 13:02:29;;;;;;;17.27;6.15;;;17.80;72.20;;;;;;5054597;28;20071;-79
2022/04/22 13:05:08;;;;;;;11.73;5.75;;;17.90;70.10;;;;;;5036896;28;20043;-82
2022/04/22 13:07:42;;;;;;;12.85;5.00;;;18.10;70.80;;;;;;5020667;28;20345;-78
2022/04/22 13:10:14;;;;;;;12.30;5.47;;;18.20;70.90;;;;;;5036997;28;20127;-77
2022/04/22 13:12:42;;;;;;;11.10;5.53;;;18.10;70.60;;;;;;5036430;28;20057;-78
2022/04/22 13:15:09;;;;;;;14.63;5.90;;;18.30;70.10;;;;;;5054367;28;20443;-80
2022/04/22 13:17:45;;;;;;;12.75;6.05;;;18.30;68.90;;;;;;5036063;28;20499;-78
2022/04/22 13:20:15;;;;;;;16.25;6.07;;;18.50;70.00;;;;;;5020213;28;20045;-77
2022/04/22 13:22:42;;;;;;;13.60;5.50;;;18.60;69.60;;;;;;5019640;28;20170;-77
2022/04/22 13:25:10;;;;;;;12.83;5.27;;;18.60;68.80;;;;;;5036385;28;20480;-78
2022/04/22 13:27:37;;;;;;;12.40;5.78;;;18.70;68.50;;;;;;5035793;28;20064;-76
2022/04/22 13:30:04;;;;;;;16.73;5.90;;;18.70;67.80;;;;;;5002853;28;20041;-76
2022/04/22 13:32:29;;;;;;;12.93;5.88;;;18.60;68.30;;;;;;5019168;28;20049;-78
2022/04/22 13:34:55;;;;;;;12.93;5.10;;;18.60;67.80;;;;;;5053853;28;20094;-79
2022/04/22 13:37:21;;;;;;;11.77;5.40;;;18.60;67.80;;;;;;5003228;28;20053;-76
2022/04/22 13:39:47;;;;;;;15.00;6.03;;;18.40;67.80;;;;;;5035895;28;20362;-76
2022/04/22 13:42:13;;;;;;;10.70;5.65;;;18.30;68.10;;;;;;5018792;28;20056;-79
2022/04/22 13:52:52;;;;;;;13.27;6.72;;;18.20;70.60;;;;;;5022085;28;20045;-79
2022/04/22 13:55:18;;;;;;;16.90;8.00;;;18.40;70.40;;;;;;5035863;28;20136;-76
2022/04/22 13:57:44;;;;;;;16.55;7.22;;;18.50;70.40;;;;;;5035771;28;20045;-79
2022/04/22 14:00:11;;;;;;;19.55;7.10;;;18.60;69.70;;;;;;5019299;28;20440;-78
2022/04/22 14:02:36;;;;;;;;;;;18.60;68.60;;;;;;5035910;28;20052;-77
2022/04/22 14:05:03;;;;;;;12.77;6.13;;;18.50;70.30;;;;;;5035816;28;19921;-77